sensor_id;sensor_type;location;lat;lon;timestamp;pressure;altitude;pressure_sealevel;temperature;humidity
77106;BME280;66057;54.718;18.426;2022-12-17T00:01:02;101947.25;;;-2.71;88.12
77106;BME280;66057;54.718;18.426;2022-12-17T00:03:46;101938.00;;;-2.56;88.21
77106;BME280;66057;54.718;18.426;2022-12-17T00:06:42;101939.53;;;-2.49;89.03
77106;BME280;66057;54.718;18.426;2022-12-17T00:09:27;101944.88;;;-2.39;88.18
77106;BME280;66057;54.718;18.426;2022-12-17T00:12:12;101942.34;;;-2.39;88.10
77106;BME280;66057;54.718;18.426;2022-12-17T00:14:57;101936.41;;;-2.40;87.40
77106;BME280;66057;54.718;18.426;2022-12-17T00:17:42;101933.91;;;-2.40;87.17
77106;BME280;66057;54.718;18.426;2022-12-17T00:20:26;101949.75;;;-2.41;86.91
77106;BME280;66057;54.718;18.426;2022-12-17T00:23:11;101955.34;;;-2.43;87.06
77106;BME280;66057;54.718;18.426;2022-12-17T00:25:56;101956.84;;;-2.52;86.78
77106;BME280;66057;54.718;18.426;2022-12-17T00:28:42;101955.78;;;-2.54;87.47
77106;BME280;66057;54.718;18.426;2022-12-17T00:31:27;101950.41;;;-2.57;87.41
77106;BME280;66057;54.718;18.426;2022-12-17T00:34:27;101961.19;;;-2.58;87.18
77106;BME280;66057;54.718;18.426;2022-12-17T00:37:12;101964.81;;;-2.64;87.81
77106;BME280;66057;54.718;18.426;2022-12-17T00:39:56;101965.19;;;-2.68;88.55
77106;BME280;66057;54.718;18.426;2022-12-17T00:42:42;101979.53;;;-2.59;87.71
77106;BME280;66057;54.718;18.426;2022-12-17T00:45:26;101988.16;;;-2.57;87.54
77106;BME280;66057;54.718;18.426;2022-12-17T00:48:11;101982.59;;;-2.62;87.66
77106;BME280;66057;54.718;18.426;2022-12-17T00:50:56;101984.94;;;-2.64;88.26
77106;BME280;66057;54.718;18.426;2022-12-17T00:53:41;101986.13;;;-2.53;87.99
77106;BME280;66057;54.718;18.426;2022-12-17T00:56:30;101994.78;;;-2.58;87.83
77106;BME280;66057;54.718;18.426;2022-12-17T00:59:35;102002.84;;;-2.53;86.94
77106;BME280;66057;54.718;18.426;2022-12-17T01:02:20;101989.22;;;-2.55;87.61
77106;BME280;66057;54.718;18.426;2022-12-17T01:05:05;101994.78;;;-2.58;87.33
77106;BME280;66057;54.718;18.426;2022-12-17T01:07:50;102009.56;;;-2.61;87.38
77106;BME280;66057;54.718;18.426;2022-12-17T01:10:35;102005.81;;;-2.65;86.99
77106;BME280;66057;54.718;18.426;2022-12-17T01:13:20;102010.16;;;-2.71;87.33
77106;BME280;66057;54.718;18.426;2022-12-17T01:16:12;102019.13;;;-2.66;87.08
77106;BME280;66057;54.718;18.426;2022-12-17T01:18:57;102020.91;;;-2.65;88.01
77106;BME280;66057;54.718;18.426;2022-12-17T01:21:44;102022.84;;;-2.62;86.89
77106;BME280;66057;54.718;18.426;2022-12-17T01:24:29;102025.81;;;-2.43;86.97
77106;BME280;66057;54.718;18.426;2022-12-17T01:27:14;102019.88;;;-2.44;86.96
77106;BME280;66057;54.718;18.426;2022-12-17T01:29:59;102024.91;;;-2.44;86.56
77106;BME280;66057;54.718;18.426;2022-12-17T01:33:04;102019.88;;;-2.44;86.30
77106;BME280;66057;54.718;18.426;2022-12-17T01:35:49;102021.88;;;-2.48;86.79
77106;BME280;66057;54.718;18.426;2022-12-17T01:38:34;102024.97;;;-2.51;86.37
77106;BME280;66057;54.718;18.426;2022-12-17T01:41:19;102026.25;;;-2.54;86.43
77106;BME280;66057;54.718;18.426;2022-12-17T01:47:19;102025.19;;;-2.64;86.35
77106;BME280;66057;54.718;18.426;2022-12-17T01:50:04;102029.91;;;-2.67;87.36
77106;BME280;66057;54.718;18.426;2022-12-17T01:52:54;102019.38;;;-2.78;87.32
77106;BME280;66057;54.718;18.426;2022-12-17T01:55:41;102028.88;;;-2.83;87.73
77106;BME280;66057;54.718;18.426;2022-12-17T01:58:26;102030.53;;;-2.83;87.32
77106;BME280;66057;54.718;18.426;2022-12-17T02:01:11;102028.91;;;-2.90;87.42
77106;BME280;66057;54.718;18.426;2022-12-17T02:03:55;102026.63;;;-3.02;88.36
77106;BME280;66057;54.718;18.426;2022-12-17T02:06:45;102032.03;;;-3.14;87.35
77106;BME280;66057;54.718;18.426;2022-12-17T02:09:42;102039.97;;;-3.18;88.75
77106;BME280;66057;54.718;18.426;2022-12-17T02:12:43;102040.16;;;-3.23;89.05
77106;BME280;66057;54.718;18.426;2022-12-17T02:16:00;102032.28;;;-3.26;88.58
77106;BME280;66057;54.718;18.426;2022-12-17T02:18:50;102034.78;;;-3.33;88.18
77106;BME280;66057;54.718;18.426;2022-12-17T02:21:38;102038.38;;;-3.38;88.71
77106;BME280;66057;54.718;18.426;2022-12-17T02:24:38;102038.75;;;-3.42;88.89
77106;BME280;66057;54.718;18.426;2022-12-17T02:27:27;102038.22;;;-3.47;89.08
77106;BME280;66057;54.718;18.426;2022-12-17T02:30:12;102049.16;;;-3.46;88.34
77106;BME280;66057;54.718;18.426;2022-12-17T02:32:58;102040.00;;;-3.39;87.98
77106;BME280;66057;54.718;18.426;2022-12-17T02:35:48;102038.56;;;-3.44;87.93
77106;BME280;66057;54.718;18.426;2022-12-17T02:38:35;102041.25;;;-3.42;89.63
77106;BME280;66057;54.718;18.426;2022-12-17T02:41:33;102036.03;;;-3.44;89.20
77106;BME280;66057;54.718;18.426;2022-12-17T02:44:20;102036.94;;;-3.43;89.58
77106;BME280;66057;54.718;18.426;2022-12-17T02:47:08;102034.09;;;-3.46;89.39
77106;BME280;66057;54.718;18.426;2022-12-17T02:49:55;102040.00;;;-3.53;88.78
77106;BME280;66057;54.718;18.426;2022-12-17T02:52:46;102045.06;;;-3.60;87.61
77106;BME280;66057;54.718;18.426;2022-12-17T02:55:35;102040.72;;;-3.68;90.00
77106;BME280;66057;54.718;18.426;2022-12-17T02:58:21;102046.47;;;-3.69;89.50
77106;BME280;66057;54.718;18.426;2022-12-17T03:01:15;102040.19;;;-3.73;89.59
77106;BME280;66057;54.718;18.426;2022-12-17T03:04:00;102044.84;;;-3.69;88.54
77106;BME280;66057;54.718;18.426;2022-12-17T03:06:45;102053.13;;;-3.63;89.40
77106;BME280;66057;54.718;18.426;2022-12-17T03:09:30;102048.28;;;-3.61;88.32
77106;BME280;66057;54.718;18.426;2022-12-17T03:12:15;102048.81;;;-3.57;88.25
77106;BME280;66057;54.718;18.426;2022-12-17T03:15:03;102055.78;;;-3.54;87.61
77106;BME280;66057;54.718;18.426;2022-12-17T03:17:55;102051.66;;;-3.54;87.30
77106;BME280;66057;54.718;18.426;2022-12-17T03:20:40;102056.84;;;-3.45;87.78
77106;BME280;66057;54.718;18.426;2022-12-17T03:23:28;102063.88;;;-3.42;87.56
77106;BME280;66057;54.718;18.426;2022-12-17T03:26:13;102061.19;;;-3.44;88.63
77106;BME280;66057;54.718;18.426;2022-12-17T03:29:10;102062.25;;;-3.42;88.65
77106;BME280;66057;54.718;18.426;2022-12-17T03:31:55;102073.19;;;-3.27;88.17
77106;BME280;66057;54.718;18.426;2022-12-17T03:34:40;102079.13;;;-3.27;87.07
77106;BME280;66057;54.718;18.426;2022-12-17T03:37:33;102088.66;;;-3.31;87.20
77106;BME280;66057;54.718;18.426;2022-12-17T03:40:26;102081.44;;;-3.35;86.73
77106;BME280;66057;54.718;18.426;2022-12-17T03:43:15;102083.97;;;-3.35;86.13
77106;BME280;66057;54.718;18.426;2022-12-17T03:45:59;102077.88;;;-3.37;86.92
77106;BME280;66057;54.718;18.426;2022-12-17T03:48:44;102096.19;;;-3.45;86.12
77106;BME280;66057;54.718;18.426;2022-12-17T03:51:29;102095.66;;;-3.43;86.14
77106;BME280;66057;54.718;18.426;2022-12-17T03:54:14;102095.09;;;-3.33;85.84
77106;BME280;66057;54.718;18.426;2022-12-17T03:56:58;102104.81;;;-3.36;87.24
77106;BME280;66057;54.718;18.426;2022-12-17T03:59:43;102094.91;;;-3.35;87.46
77106;BME280;66057;54.718;18.426;2022-12-17T04:02:28;102090.06;;;-3.33;86.80
77106;BME280;66057;54.718;18.426;2022-12-17T04:05:13;102103.53;;;-3.26;86.35
77106;BME280;66057;54.718;18.426;2022-12-17T04:07:58;102103.72;;;-3.24;87.01
77106;BME280;66057;54.718;18.426;2022-12-17T04:10:43;102112.72;;;-3.26;86.17
77106;BME280;66057;54.718;18.426;2022-12-17T04:13:27;102100.84;;;-3.27;87.04
77106;BME280;66057;54.718;18.426;2022-12-17T04:16:19;102090.78;;;-3.27;86.77
77106;BME280;66057;54.718;18.426;2022-12-17T04:19:04;102103.72;;;-3.31;87.34
77106;BME280;66057;54.718;18.426;2022-12-17T04:21:48;102096.19;;;-3.38;88.35
77106;BME280;66057;54.718;18.426;2022-12-17T04:24:33;102102.66;;;-3.33;86.69
77106;BME280;66057;54.718;18.426;2022-12-17T04:27:18;102094.94;;;-3.42;87.48
77106;BME280;66057;54.718;18.426;2022-12-17T04:30:03;102104.28;;;-3.41;87.32
77106;BME280;66057;54.718;18.426;2022-12-17T04:32:48;102112.34;;;-3.43;86.78
77106;BME280;66057;54.718;18.426;2022-12-17T04:35:32;102116.13;;;-3.47;87.01
77106;BME280;66057;54.718;18.426;2022-12-17T04:38:24;102122.03;;;-3.46;87.78
77106;BME280;66057;54.718;18.426;2022-12-17T04:41:09;102117.91;;;-3.39;87.20
77106;BME280;66057;54.718;18.426;2022-12-17T04:43:54;102116.66;;;-3.28;86.54
77106;BME280;66057;54.718;18.426;2022-12-17T04:46:38;102125.44;;;-3.25;87.92
77106;BME280;66057;54.718;18.426;2022-12-17T04:49:23;102134.22;;;-3.21;86.52
77106;BME280;66057;54.718;18.426;2022-12-17T04:52:08;102145.91;;;-3.29;86.97
77106;BME280;66057;54.718;18.426;2022-12-17T04:54:53;102144.31;;;-3.28;87.61
77106;BME280;66057;54.718;18.426;2022-12-17T04:57:38;102144.31;;;-3.07;87.10
77106;BME280;66057;54.718;18.426;2022-12-17T05:00:23;102147.13;;;-2.97;87.02
77106;BME280;66057;54.718;18.426;2022-12-17T05:03:14;102145.72;;;-2.95;87.01
77106;BME280;66057;54.718;18.426;2022-12-17T05:05:59;102142.47;;;-2.94;86.36
77106;BME280;66057;54.718;18.426;2022-12-17T05:08:45;102145.38;;;-2.98;86.08
77106;BME280;66057;54.718;18.426;2022-12-17T05:11:30;102139.59;;;-2.97;86.68
77106;BME280;66057;54.718;18.426;2022-12-17T05:14:15;102140.47;;;-2.96;87.32
77106;BME280;66057;54.718;18.426;2022-12-17T05:16:59;102132.41;;;-3.01;86.54
77106;BME280;66057;54.718;18.426;2022-12-17T05:19:44;102141.38;;;-2.96;87.39
77106;BME280;66057;54.718;18.426;2022-12-17T05:22:36;102143.19;;;-2.95;86.75
77106;BME280;66057;54.718;18.426;2022-12-17T05:25:21;102139.41;;;-2.91;88.04
77106;BME280;66057;54.718;18.426;2022-12-17T05:28:06;102137.97;;;-2.96;87.57
77106;BME280;66057;54.718;18.426;2022-12-17T05:30:54;102142.47;;;-3.01;88.31
77106;BME280;66057;54.718;18.426;2022-12-17T05:33:39;102146.78;;;-2.93;87.91
77106;BME280;66057;54.718;18.426;2022-12-17T05:36:24;102149.13;;;-2.94;86.77
77106;BME280;66057;54.718;18.426;2022-12-17T05:39:09;102151.06;;;-2.92;88.07
77106;BME280;66057;54.718;18.426;2022-12-17T05:42:04;102151.78;;;-2.86;88.17
77106;BME280;66057;54.718;18.426;2022-12-17T05:44:49;102152.13;;;-2.83;87.71
77106;BME280;66057;54.718;18.426;2022-12-17T05:47:34;102154.69;;;-2.90;87.70
77106;BME280;66057;54.718;18.426;2022-12-17T05:50:18;102159.16;;;-2.87;88.72
77106;BME280;66057;54.718;18.426;2022-12-17T05:53:04;102161.84;;;-2.86;88.97
77106;BME280;66057;54.718;18.426;2022-12-17T05:55:52;102161.81;;;-2.72;87.91
77106;BME280;66057;54.718;18.426;2022-12-17T05:58:38;102169.38;;;-2.65;87.62
77106;BME280;66057;54.718;18.426;2022-12-17T06:01:31;102171.19;;;-2.71;87.96
77106;BME280;66057;54.718;18.426;2022-12-17T06:04:15;102176.22;;;-2.71;87.42
77106;BME280;66057;54.718;18.426;2022-12-17T06:07:03;102172.97;;;-2.70;88.25
77106;BME280;66057;54.718;18.426;2022-12-17T06:09:47;102179.44;;;-2.65;88.25
77106;BME280;66057;54.718;18.426;2022-12-17T06:12:36;102184.28;;;-2.66;88.09
77106;BME280;66057;54.718;18.426;2022-12-17T06:15:20;102192.56;;;-2.67;88.36
77106;BME280;66057;54.718;18.426;2022-12-17T06:18:08;102195.63;;;-2.70;87.78
77106;BME280;66057;54.718;18.426;2022-12-17T06:20:57;102197.44;;;-2.69;88.03
77106;BME280;66057;54.718;18.426;2022-12-17T06:23:41;102206.03;;;-2.67;87.76
77106;BME280;66057;54.718;18.426;2022-12-17T06:26:26;102198.84;;;-2.71;88.25
77106;BME280;66057;54.718;18.426;2022-12-17T06:29:10;102203.72;;;-2.79;87.00
77106;BME280;66057;54.718;18.426;2022-12-17T06:31:55;102214.69;;;-2.79;87.74
77106;BME280;66057;54.718;18.426;2022-12-17T06:34:40;102212.16;;;-2.86;87.36
77106;BME280;66057;54.718;18.426;2022-12-17T06:37:33;102203.56;;;-2.88;88.29
77106;BME280;66057;54.718;18.426;2022-12-17T06:40:18;102219.34;;;-2.82;87.38
77106;BME280;66057;54.718;18.426;2022-12-17T06:43:03;102227.28;;;-2.79;87.50
77106;BME280;66057;54.718;18.426;2022-12-17T06:45:50;102220.63;;;-2.85;86.97
77106;BME280;66057;54.718;18.426;2022-12-17T06:48:35;102233.00;;;-2.87;88.04
77106;BME280;66057;54.718;18.426;2022-12-17T06:51:22;102236.59;;;-2.92;86.85
77106;BME280;66057;54.718;18.426;2022-12-17T06:54:06;102245.22;;;-2.90;87.12
77106;BME280;66057;54.718;18.426;2022-12-17T06:56:51;102240.91;;;-2.91;87.41
77106;BME280;66057;54.718;18.426;2022-12-17T06:59:35;102247.38;;;-2.86;87.84
77106;BME280;66057;54.718;18.426;2022-12-17T07:02:20;102254.03;;;-2.86;86.70
77106;BME280;66057;54.718;18.426;2022-12-17T07:05:05;102254.22;;;-2.85;87.62
77106;BME280;66057;54.718;18.426;2022-12-17T07:07:59;102258.69;;;-2.82;86.37
77106;BME280;66057;54.718;18.426;2022-12-17T07:10:43;102257.25;;;-2.87;87.43
77106;BME280;66057;54.718;18.426;2022-12-17T07:13:31;102271.28;;;-2.89;86.39
77106;BME280;66057;54.718;18.426;2022-12-17T07:16:16;102266.78;;;-2.92;86.83
77106;BME280;66057;54.718;18.426;2022-12-17T07:19:01;102271.81;;;-2.92;86.93
77106;BME280;66057;54.718;18.426;2022-12-17T07:21:46;102273.63;;;-2.91;86.83
77106;BME280;66057;54.718;18.426;2022-12-17T07:24:31;102274.53;;;-2.90;87.41
77106;BME280;66057;54.718;18.426;2022-12-17T07:27:15;102283.69;;;-2.91;86.90
77106;BME280;66057;54.718;18.426;2022-12-17T07:30:00;102289.25;;;-2.93;86.85
77106;BME280;66057;54.718;18.426;2022-12-17T07:32:44;102287.28;;;-2.89;86.97
77106;BME280;66057;54.718;18.426;2022-12-17T07:35:29;102291.59;;;-2.88;86.49
77106;BME280;66057;54.718;18.426;2022-12-17T07:38:14;102296.09;;;-2.85;86.54
77106;BME280;66057;54.718;18.426;2022-12-17T07:40:58;102294.81;;;-2.82;86.99
77106;BME280;66057;54.718;18.426;2022-12-17T07:43:46;102296.81;;;-2.79;85.73
77106;BME280;66057;54.718;18.426;2022-12-17T07:46:31;102302.00;;;-2.78;86.62
77106;BME280;66057;54.718;18.426;2022-12-17T07:49:15;102304.72;;;-2.76;86.23
77106;BME280;66057;54.718;18.426;2022-12-17T07:52:01;102314.41;;;-2.72;85.50
77106;BME280;66057;54.718;18.426;2022-12-17T07:54:45;102313.34;;;-2.74;86.02
77106;BME280;66057;54.718;18.426;2022-12-17T07:57:29;102305.25;;;-2.79;85.62
77106;BME280;66057;54.718;18.426;2022-12-17T08:00:15;102313.00;;;-2.70;85.56
77106;BME280;66057;54.718;18.426;2022-12-17T08:03:00;102316.75;;;-2.67;84.75
77106;BME280;66057;54.718;18.426;2022-12-17T08:05:45;102325.75;;;-2.61;84.75
77106;BME280;66057;54.718;18.426;2022-12-17T08:08:29;102322.13;;;-2.64;85.43
77106;BME280;66057;54.718;18.426;2022-12-17T08:11:14;102313.53;;;-2.66;85.40
77106;BME280;66057;54.718;18.426;2022-12-17T08:14:18;102320.38;;;-2.65;84.95
77106;BME280;66057;54.718;18.426;2022-12-17T08:17:03;102310.47;;;-2.63;85.17
77106;BME280;66057;54.718;18.426;2022-12-17T08:19:48;102329.50;;;-2.58;84.91
77106;BME280;66057;54.718;18.426;2022-12-17T08:22:32;102318.19;;;-2.61;84.60
77106;BME280;66057;54.718;18.426;2022-12-17T08:25:16;102325.22;;;-2.45;85.25
77106;BME280;66057;54.718;18.426;2022-12-17T08:28:01;102329.69;;;-2.42;84.51
77106;BME280;66057;54.718;18.426;2022-12-17T08:30:49;102328.44;;;-2.46;83.91
77106;BME280;66057;54.718;18.426;2022-12-17T08:33:33;102328.25;;;-2.47;84.49
77106;BME280;66057;54.718;18.426;2022-12-17T08:36:18;102341.94;;;-2.45;84.42
77106;BME280;66057;54.718;18.426;2022-12-17T08:39:02;102335.63;;;-2.42;84.82
77106;BME280;66057;54.718;18.426;2022-12-17T08:41:47;102332.75;;;-2.38;84.26
77106;BME280;66057;54.718;18.426;2022-12-17T08:44:31;102329.88;;;-2.27;84.35
77106;BME280;66057;54.718;18.426;2022-12-17T08:47:16;102333.97;;;-2.13;84.27
77106;BME280;66057;54.718;18.426;2022-12-17T08:50:00;102331.63;;;-2.04;83.54
77106;BME280;66057;54.718;18.426;2022-12-17T08:52:45;102328.72;;;-2.00;82.96
77106;BME280;66057;54.718;18.426;2022-12-17T08:55:29;102315.97;;;-2.02;83.37
77106;BME280;66057;54.718;18.426;2022-12-17T08:58:13;102322.97;;;-1.92;82.99
77106;BME280;66057;54.718;18.426;2022-12-17T09:00:59;102332.81;;;-1.87;82.75
77106;BME280;66057;54.718;18.426;2022-12-17T09:03:45;102329.78;;;-1.84;83.51
77106;BME280;66057;54.718;18.426;2022-12-17T09:06:30;102349.16;;;-1.69;82.87
77106;BME280;66057;54.718;18.426;2022-12-17T09:09:15;102347.91;;;-1.72;81.54
77106;BME280;66057;54.718;18.426;2022-12-17T09:11:59;102354.75;;;-1.71;82.36
77106;BME280;66057;54.718;18.426;2022-12-17T09:14:44;102361.59;;;-1.70;81.65
77106;BME280;66057;54.718;18.426;2022-12-17T09:17:28;102350.41;;;-1.72;82.46
77106;BME280;66057;54.718;18.426;2022-12-17T09:20:13;102352.25;;;-1.79;82.40
77106;BME280;66057;54.718;18.426;2022-12-17T09:22:57;102361.06;;;-1.82;83.03
77106;BME280;66057;54.718;18.426;2022-12-17T09:25:42;102353.69;;;-1.81;82.89
77106;BME280;66057;54.718;18.426;2022-12-17T09:28:39;102354.97;;;-1.84;82.75
77106;BME280;66057;54.718;18.426;2022-12-17T09:31:25;102341.13;;;-1.88;83.23
77106;BME280;66057;54.718;18.426;2022-12-17T09:34:09;102342.34;;;-1.77;82.72
77106;BME280;66057;54.718;18.426;2022-12-17T09:36:54;102350.84;;;-1.84;83.08
77106;BME280;66057;54.718;18.426;2022-12-17T09:39:38;102349.94;;;-1.84;82.83
77106;BME280;66057;54.718;18.426;2022-12-17T09:42:28;102342.19;;;-1.86;83.25
77106;BME280;66057;54.718;18.426;2022-12-17T09:45:33;102343.63;;;-1.81;83.60
77106;BME280;66057;54.718;18.426;2022-12-17T09:48:26;102344.19;;;-1.83;83.58
77106;BME280;66057;54.718;18.426;2022-12-17T09:51:25;102341.28;;;-1.79;83.15
77106;BME280;66057;54.718;18.426;2022-12-17T09:54:26;102338.38;;;-1.82;83.17
77106;BME280;66057;54.718;18.426;2022-12-17T09:57:16;102336.25;;;-1.86;83.46
77106;BME280;66057;54.718;18.426;2022-12-17T10:00:19;102348.50;;;-1.89;83.99
77106;BME280;66057;54.718;18.426;2022-12-17T10:03:10;102347.97;;;-1.94;83.62
77106;BME280;66057;54.718;18.426;2022-12-17T10:05:56;102341.13;;;-1.88;83.45
77106;BME280;66057;54.718;18.426;2022-12-17T10:08:41;102345.28;;;-1.88;83.08
77106;BME280;66057;54.718;18.426;2022-12-17T10:11:28;102344.91;;;-1.84;83.61
77106;BME280;66057;54.718;18.426;2022-12-17T10:14:21;102343.63;;;-1.81;83.21
77106;BME280;66057;54.718;18.426;2022-12-17T10:17:17;102350.22;;;-1.67;83.34
77106;BME280;66057;54.718;18.426;2022-12-17T10:20:04;102354.88;;;-1.63;83.10
77106;BME280;66057;54.718;18.426;2022-12-17T10:22:57;102336.38;;;-1.70;83.62
77106;BME280;66057;54.718;18.426;2022-12-17T10:25:52;102342.84;;;-1.65;83.17
77106;BME280;66057;54.718;18.426;2022-12-17T10:28:50;102343.56;;;-1.66;83.52
77106;BME280;66057;54.718;18.426;2022-12-17T10:31:34;102350.75;;;-1.62;83.16
77106;BME280;66057;54.718;18.426;2022-12-17T10:34:20;102371.81;;;-1.55;83.48
77106;BME280;66057;54.718;18.426;2022-12-17T10:37:05;102356.84;;;-1.53;83.55
77106;BME280;66057;54.718;18.426;2022-12-17T10:39:59;102367.81;;;-1.46;82.30
77106;BME280;66057;54.718;18.426;2022-12-17T10:42:44;102358.03;;;-1.36;82.74
77106;BME280;66057;54.718;18.426;2022-12-17T10:45:34;102367.81;;;-1.46;82.06
77106;BME280;66057;54.718;18.426;2022-12-17T10:48:23;102359.16;;;-1.41;81.89
77106;BME280;66057;54.718;18.426;2022-12-17T10:54:34;102359.69;;;-1.43;82.68
77106;BME280;66057;54.718;18.426;2022-12-17T11:00:23;102361.63;;;-1.34;81.29
77106;BME280;66057;54.718;18.426;2022-12-17T11:03:51;102359.22;;;-1.18;81.93
77106;BME280;66057;54.718;18.426;2022-12-17T11:06:40;102362.25;;;-1.13;80.95
77106;BME280;66057;54.718;18.426;2022-12-17T11:09:45;102372.91;;;-1.16;80.70
77106;BME280;66057;54.718;18.426;2022-12-17T11:12:53;102367.03;;;-1.30;81.31
77106;BME280;66057;54.718;18.426;2022-12-17T11:15:48;102374.06;;;-1.35;81.26
77106;BME280;66057;54.718;18.426;2022-12-17T11:18:51;102372.28;;;-1.36;80.99
77106;BME280;66057;54.718;18.426;2022-12-17T11:21:47;102364.19;;;-1.41;81.96
77106;BME280;66057;54.718;18.426;2022-12-17T11:25:21;102353.53;;;-1.38;81.67
77106;BME280;66057;54.718;18.426;2022-12-17T11:28:35;102356.09;;;-1.45;81.68
77106;BME280;66057;54.718;18.426;2022-12-17T11:31:42;102362.19;;;-1.43;82.13
77106;BME280;66057;54.718;18.426;2022-12-17T11:37:59;102365.47;;;-1.44;80.89
77106;BME280;66057;54.718;18.426;2022-12-17T11:40:52;102365.81;;;-1.48;82.39
77106;BME280;66057;54.718;18.426;2022-12-17T11:47:04;102373.91;;;-1.44;82.49
77106;BME280;66057;54.718;18.426;2022-12-17T11:49:57;102366.31;;;-1.37;81.85
77106;BME280;66057;54.718;18.426;2022-12-17T11:56:05;102362.91;;;-1.37;80.45
77106;BME280;66057;54.718;18.426;2022-12-17T11:59:06;102369.38;;;-1.32;80.69
77106;BME280;66057;54.718;18.426;2022-12-17T12:10:40;102365.75;;;-1.34;81.36
77106;BME280;66057;54.718;18.426;2022-12-17T12:13:51;102363.63;;;-1.38;80.28
77106;BME280;66057;54.718;18.426;2022-12-17T12:20:02;102363.81;;;-1.37;81.21
77106;BME280;66057;54.718;18.426;2022-12-17T12:25:46;102363.63;;;-1.38;81.40
77106;BME280;66057;54.718;18.426;2022-12-17T12:28:45;102363.78;;;-1.29;81.08
77106;BME280;66057;54.718;18.426;2022-12-17T12:32:11;102359.06;;;-1.26;80.54
77106;BME280;66057;54.718;18.426;2022-12-17T12:35:02;102359.47;;;-1.30;80.78
77106;BME280;66057;54.718;18.426;2022-12-17T12:37:47;102366.78;;;-1.18;80.59
77106;BME280;66057;54.718;18.426;2022-12-17T12:40:43;102353.84;;;-1.21;80.16
77106;BME280;66057;54.718;18.426;2022-12-17T12:43:33;102368.06;;;-1.21;80.61
77106;BME280;66057;54.718;18.426;2022-12-17T12:46:26;102366.66;;;-1.26;81.04
77106;BME280;66057;54.718;18.426;2022-12-17T12:49:30;102365.94;;;-1.33;81.11
77106;BME280;66057;54.718;18.426;2022-12-17T12:52:21;102375.63;;;-1.21;80.67
77106;BME280;66057;54.718;18.426;2022-12-17T12:55:07;102368.56;;;-1.17;80.41
77106;BME280;66057;54.718;18.426;2022-12-17T13:03:49;102381.06;;;-1.25;81.12
77106;BME280;66057;54.718;18.426;2022-12-17T13:06:55;102383.41;;;-1.27;80.66
77106;BME280;66057;54.718;18.426;2022-12-17T13:17:43;102389.22;;;-1.42;80.23
77106;BME280;66057;54.718;18.426;2022-12-17T13:22:51;102395.53;;;-1.46;80.74
77106;BME280;66057;54.718;18.426;2022-12-17T13:25:21;102383.72;;;-1.61;81.47
77106;BME280;66057;54.718;18.426;2022-12-17T13:27:48;102389.09;;;-1.58;81.12
77106;BME280;66057;54.718;18.426;2022-12-17T13:41:16;102407.00;;;-1.85;81.76
77106;BME280;66057;54.718;18.426;2022-12-17T13:43:48;102408.81;;;-1.98;81.80
77106;BME280;66057;54.718;18.426;2022-12-17T13:46:23;102410.63;;;-1.97;82.70
77106;BME280;66057;54.718;18.426;2022-12-17T13:48:53;102421.38;;;-1.77;81.23
77106;BME280;66057;54.718;18.426;2022-12-17T13:51:21;102417.78;;;-1.79;80.65
77106;BME280;66057;54.718;18.426;2022-12-17T13:53:58;102413.09;;;-1.76;80.28
77106;BME280;66057;54.718;18.426;2022-12-17T13:56:32;102426.06;;;-1.80;80.38
77106;BME280;66057;54.718;18.426;2022-12-17T13:59:00;102421.75;;;-1.88;80.93
77106;BME280;66057;54.718;18.426;2022-12-17T14:01:30;102425.19;;;-1.94;80.76
77106;BME280;66057;54.718;18.426;2022-12-17T14:04:00;102446.25;;;-1.94;80.88
77106;BME280;66057;54.718;18.426;2022-12-17T14:06:34;102439.03;;;-2.05;80.70
77106;BME280;66057;54.718;18.426;2022-12-17T14:09:01;102436.53;;;-2.12;81.70
77106;BME280;66057;54.718;18.426;2022-12-17T14:11:27;102444.06;;;-2.19;81.25
77106;BME280;66057;54.718;18.426;2022-12-17T14:14:21;102454.50;;;-2.23;81.90
77106;BME280;66057;54.718;18.426;2022-12-17T14:16:51;102455.41;;;-2.37;82.41
77106;BME280;66057;54.718;18.426;2022-12-17T14:19:17;102451.41;;;-2.49;82.74
77106;BME280;66057;54.718;18.426;2022-12-17T14:21:43;102455.91;;;-2.53;83.06
77106;BME280;66057;54.718;18.426;2022-12-17T14:24:11;102442.56;;;-2.67;83.07
77106;BME280;66057;54.718;18.426;2022-12-17T14:27:04;102455.88;;;-2.68;83.06
77106;BME280;66057;54.718;18.426;2022-12-17T14:29:30;102451.53;;;-2.76;82.90
77106;BME280;66057;54.718;18.426;2022-12-17T14:32:01;102462.16;;;-2.78;84.20
77106;BME280;66057;54.718;18.426;2022-12-17T14:34:28;102459.06;;;-2.83;83.41
77106;BME280;66057;54.718;18.426;2022-12-17T14:37:04;102467.34;;;-2.84;83.81
77106;BME280;66057;54.718;18.426;2022-12-17T14:39:31;102478.81;;;-2.86;83.87
77106;BME280;66057;54.718;18.426;2022-12-17T14:42:06;102479.88;;;-2.91;83.56
77106;BME280;66057;54.718;18.426;2022-12-17T14:45:01;102478.28;;;-2.90;84.37
77106;BME280;66057;54.718;18.426;2022-12-17T14:49:54;102487.63;;;-2.89;83.95
77106;BME280;66057;54.718;18.426;2022-12-17T14:52:40;102491.03;;;-2.89;84.29
77106;BME280;66057;54.718;18.426;2022-12-17T14:55:28;102497.16;;;-2.87;83.20
77106;BME280;66057;54.718;18.426;2022-12-17T15:00:43;102497.84;;;-2.95;84.49
77106;BME280;66057;54.718;18.426;2022-12-17T15:03:19;102507.56;;;-2.91;82.75
77106;BME280;66057;54.718;18.426;2022-12-17T15:05:50;102519.06;;;-2.86;84.05
77106;BME280;66057;54.718;18.426;2022-12-17T15:08:17;102513.84;;;-2.87;83.29
77106;BME280;66057;54.718;18.426;2022-12-17T15:10:43;102529.50;;;-2.83;83.31
77106;BME280;66057;54.718;18.426;2022-12-17T15:13:09;102524.47;;;-2.83;83.23
77106;BME280;66057;54.718;18.426;2022-12-17T15:15:34;102530.25;;;-2.77;83.51
77106;BME280;66057;54.718;18.426;2022-12-17T15:18:00;102533.88;;;-2.75;83.94
77106;BME280;66057;54.718;18.426;2022-12-17T15:20:26;102522.00;;;-2.76;83.12
77106;BME280;66057;54.718;18.426;2022-12-17T15:22:52;102520.91;;;-2.78;83.59
77106;BME280;66057;54.718;18.426;2022-12-17T15:25:18;102529.50;;;-2.83;83.48